Hovedside
METAR-TAF:

METAR-TAF

Lufthavner :

Ronneby, Sverige

Ronneby lufthavn

breddegrad: 56-16N, lengdegrad: 015-17E, høyde over havet: 58 m

Gjeldene værobservasjon

Denne rapporten ble laget for 34 minutter siden, klokken 18:20 UTC
Flau vind
Temperatur 13°C
Luftfuktighet 100%
Trykk 1020 hPa
Sikt: 3500 m
Spredte skyer i en høyde av 300 ft
Brutte skyer i en høyde av 600 ft
lett duskregn

METAR: ESDF 221820Z 00000KT 9999 3500S -DZ SCT003 BKN006 13/13 Q1020

Tid: 20:54 (18:54 UTC)

Varsel

Denne rapporten ble laget for 1 time og 29 minutter siden, klokken 17:25 UTC
Varsel gyldig fra 22. klokken 18 UTC til 23. klokken 03 UTC
Vind 2 kt fra skiftende retning
Sikt: 5000 m
Brutte skyer i en høyde av 500 ft
lett duskregn, dis
Midlertidig
fra 22. klokken 18 UTC til 23. klokken 03 UTC
Sikt: 0500 m
i en høyde av 200 ft
tåke

TAF: ESDF 221725Z 2218/2303 VRB02KT 5000 -DZ BR BKN005 TEMPO 2218/2303 0500 FG VV002 RMK MIL

Værobservasjoner og værvarsel for over 4000 flyplasser (METAR- og TAF-rapporter).

Tilgjengelige stasjoner er representert av de røde og gule prikkene på kartet.

Hold musepekeren over prikken for å se navnet på stasjonen.

Klikk så for å se værobservasjoner og -varsler.

For å forandre kartet kan du klikke på den grønne knappen med svart kryss for å zoome inn, på den grønne knappen med strek for å zoome ut, eller på de grønne pilene for å se tilstøtende kart.


METAR-TAF: